Cehov, Russia
Current Conditions -  °F | °C
As of 3:00 PM on Sunday 25 Jan 2015 (Local Time) from UUMO Reporting Station
Clear Clear  
Wind Chill:   Ceiling: Unl
Heat Index: 16°   Visibility: 6mi
Dew Point:   Wind: 7mph
Humidity: 62%   Direction: 140°SE
Pressure: 30.45"   Gusts: NA
Location:  55.15°N, 37.48°E
Report Text: UUMO 251200Z 14003MPS CAVOK M09/M15 Q1031 NOSIG RMK QFE758/101108910342
Loading
Personal Weather Stations






























Interactive Weather Map New forecast layout! Learn more

10-Day Weather Forecast

Advertisements
Track Severe Weather on mobile